sensor_id;sensor_type;location;lat;lon;timestamp;pressure;altitude;pressure_sealevel;temperature;humidity
57847;BME280;43675;50.030;21.952;2023-05-08T00:01:52;99688.16;;;5.00;75.50
57847;BME280;43675;50.030;21.952;2023-05-08T00:04:19;99692.05;;;5.02;75.27
57847;BME280;43675;50.030;21.952;2023-05-08T00:06:46;99692.75;;;5.04;75.43
57847;BME280;43675;50.030;21.952;2023-05-08T00:09:13;99691.02;;;5.07;75.48
57847;BME280;43675;50.030;21.952;2023-05-08T00:11:39;99694.23;;;5.22;75.10
57847;BME280;43675;50.030;21.952;2023-05-08T00:14:06;99690.95;;;5.37;74.82
57847;BME280;43675;50.030;21.952;2023-05-08T00:16:32;99692.95;;;5.49;74.68
57847;BME280;43675;50.030;21.952;2023-05-08T00:18:59;99688.94;;;5.56;74.23
57847;BME280;43675;50.030;21.952;2023-05-08T00:21:25;99695.25;;;5.60;74.07
57847;BME280;43675;50.030;21.952;2023-05-08T00:23:52;99692.48;;;5.50;74.17
57847;BME280;43675;50.030;21.952;2023-05-08T00:26:19;99695.75;;;5.39;74.55
57847;BME280;43675;50.030;21.952;2023-05-08T00:28:46;99695.24;;;5.32;74.53
57847;BME280;43675;50.030;21.952;2023-05-08T00:31:13;99693.44;;;5.27;74.85
57847;BME280;43675;50.030;21.952;2023-05-08T00:33:39;99695.71;;;5.22;74.76
57847;BME280;43675;50.030;21.952;2023-05-08T00:36:06;99693.77;;;5.17;74.91
57847;BME280;43675;50.030;21.952;2023-05-08T00:38:34;99694.52;;;5.11;75.00
57847;BME280;43675;50.030;21.952;2023-05-08T00:41:01;99693.48;;;5.07;74.63
57847;BME280;43675;50.030;21.952;2023-05-08T00:43:28;99696.58;;;5.04;75.00
57847;BME280;43675;50.030;21.952;2023-05-08T00:45:58;99694.63;;;5.03;74.82
57847;BME280;43675;50.030;21.952;2023-05-08T00:48:30;99697.56;;;5.00;75.01
57847;BME280;43675;50.030;21.952;2023-05-08T00:50:58;99699.48;;;5.01;75.00
57847;BME280;43675;50.030;21.952;2023-05-08T00:53:26;99701.23;;;4.99;75.02
57847;BME280;43675;50.030;21.952;2023-05-08T00:55:54;99701.03;;;4.98;74.90
57847;BME280;43675;50.030;21.952;2023-05-08T00:58:22;99701.65;;;5.00;74.87
57847;BME280;43675;50.030;21.952;2023-05-08T01:00:51;99702.98;;;4.98;74.91
57847;BME280;43675;50.030;21.952;2023-05-08T01:03:19;99706.92;;;4.97;75.05
57847;BME280;43675;50.030;21.952;2023-05-08T01:05:47;99709.69;;;4.98;75.06
57847;BME280;43675;50.030;21.952;2023-05-08T01:08:14;99708.16;;;4.97;75.10
57847;BME280;43675;50.030;21.952;2023-05-08T01:11:25;99710.83;;;4.95;74.91
57847;BME280;43675;50.030;21.952;2023-05-08T01:14:28;99712.64;;;4.95;75.02
57847;BME280;43675;50.030;21.952;2023-05-08T01:20:41;99719.45;;;5.01;74.76
57847;BME280;43675;50.030;21.952;2023-05-08T01:31:43;99731.17;;;4.94;74.90
57847;BME280;43675;50.030;21.952;2023-05-08T01:34:30;99731.87;;;4.91;74.75
57847;BME280;43675;50.030;21.952;2023-05-08T01:37:01;99730.94;;;4.89;74.75
57847;BME280;43675;50.030;21.952;2023-05-08T01:42:01;99735.14;;;4.88;74.85
57847;BME280;43675;50.030;21.952;2023-05-08T01:44:32;99739.27;;;4.88;74.70
57847;BME280;43675;50.030;21.952;2023-05-08T01:47:04;99741.77;;;4.87;74.81
57847;BME280;43675;50.030;21.952;2023-05-08T01:49:33;99746.27;;;4.89;74.86
57847;BME280;43675;50.030;21.952;2023-05-08T01:52:06;99742.98;;;4.90;74.82
57847;BME280;43675;50.030;21.952;2023-05-08T01:54:46;99743.40;;;4.89;74.73
57847;BME280;43675;50.030;21.952;2023-05-08T01:57:15;99741.48;;;4.90;74.91
57847;BME280;43675;50.030;21.952;2023-05-08T01:59:44;99744.06;;;5.05;74.53
57847;BME280;43675;50.030;21.952;2023-05-08T02:02:12;99743.79;;;5.18;74.22
57847;BME280;43675;50.030;21.952;2023-05-08T02:04:40;99745.92;;;5.29;74.00
57847;BME280;43675;50.030;21.952;2023-05-08T02:07:08;99743.48;;;5.35;73.85
57847;BME280;43675;50.030;21.952;2023-05-08T02:09:35;99740.02;;;5.40;73.61
57847;BME280;43675;50.030;21.952;2023-05-08T02:12:05;99748.77;;;5.44;73.52
57847;BME280;43675;50.030;21.952;2023-05-08T02:14:33;99749.05;;;5.45;73.53
57847;BME280;43675;50.030;21.952;2023-05-08T02:17:02;99746.17;;;5.45;73.52
57847;BME280;43675;50.030;21.952;2023-05-08T02:19:30;99743.60;;;5.39;73.44
57847;BME280;43675;50.030;21.952;2023-05-08T02:21:59;99746.38;;;5.41;73.57
57847;BME280;43675;50.030;21.952;2023-05-08T02:24:26;99741.98;;;5.41;73.35
57847;BME280;43675;50.030;21.952;2023-05-08T02:26:55;99744.11;;;5.27;73.58
57847;BME280;43675;50.030;21.952;2023-05-08T02:29:23;99744.52;;;5.15;73.88
57847;BME280;43675;50.030;21.952;2023-05-08T02:31:51;99747.67;;;5.06;73.97
57847;BME280;43675;50.030;21.952;2023-05-08T02:34:19;99753.98;;;5.00;74.09
57847;BME280;43675;50.030;21.952;2023-05-08T02:36:48;99757.24;;;4.94;73.91
57847;BME280;43675;50.030;21.952;2023-05-08T02:39:16;99764.27;;;4.90;74.07
57847;BME280;43675;50.030;21.952;2023-05-08T02:41:44;99764.06;;;4.88;74.08
57847;BME280;43675;50.030;21.952;2023-05-08T02:44:11;99761.26;;;4.83;73.88
57847;BME280;43675;50.030;21.952;2023-05-08T02:46:59;99764.45;;;4.77;74.04
57847;BME280;43675;50.030;21.952;2023-05-08T02:49:36;99760.40;;;4.73;74.20
57847;BME280;43675;50.030;21.952;2023-05-08T02:52:26;99757.98;;;4.72;74.32
57847;BME280;43675;50.030;21.952;2023-05-08T03:01:10;99771.19;;;4.63;74.32
57847;BME280;43675;50.030;21.952;2023-05-08T03:03:44;99770.16;;;4.60;74.50
57847;BME280;43675;50.030;21.952;2023-05-08T03:06:15;99773.04;;;4.62;74.38
57847;BME280;43675;50.030;21.952;2023-05-08T03:08:43;99771.14;;;4.61;74.39
57847;BME280;43675;50.030;21.952;2023-05-08T03:11:15;99774.55;;;4.61;74.39
57847;BME280;43675;50.030;21.952;2023-05-08T03:13:44;99772.41;;;4.59;74.57
57847;BME280;43675;50.030;21.952;2023-05-08T03:16:21;99774.00;;;4.59;74.54
57847;BME280;43675;50.030;21.952;2023-05-08T03:18:52;99771.58;;;4.59;74.69
57847;BME280;43675;50.030;21.952;2023-05-08T03:21:21;99776.86;;;4.55;74.39
57847;BME280;43675;50.030;21.952;2023-05-08T03:23:51;99777.41;;;4.53;74.43
57847;BME280;43675;50.030;21.952;2023-05-08T03:26:19;99777.42;;;4.55;74.76
57847;BME280;43675;50.030;21.952;2023-05-08T03:28:47;99778.00;;;4.56;74.75
57847;BME280;43675;50.030;21.952;2023-05-08T03:31:19;99781.74;;;4.54;74.56
57847;BME280;43675;50.030;21.952;2023-05-08T03:33:49;99780.24;;;4.55;74.46
57847;BME280;43675;50.030;21.952;2023-05-08T03:36:16;99779.11;;;4.54;74.53
57847;BME280;43675;50.030;21.952;2023-05-08T03:38:43;99781.23;;;4.54;74.73
57847;BME280;43675;50.030;21.952;2023-05-08T03:41:11;99781.48;;;4.53;74.59
57847;BME280;43675;50.030;21.952;2023-05-08T03:43:38;99783.92;;;4.54;74.72
57847;BME280;43675;50.030;21.952;2023-05-08T03:46:06;99781.50;;;4.55;74.77
57847;BME280;43675;50.030;21.952;2023-05-08T03:48:33;99786.42;;;4.55;74.52
57847;BME280;43675;50.030;21.952;2023-05-08T03:51:01;99782.84;;;4.56;74.45
57847;BME280;43675;50.030;21.952;2023-05-08T03:53:29;99784.29;;;4.58;74.91
57847;BME280;43675;50.030;21.952;2023-05-08T03:55:57;99785.39;;;4.61;74.77
57847;BME280;43675;50.030;21.952;2023-05-08T03:58:37;99788.48;;;4.63;74.67
57847;BME280;43675;50.030;21.952;2023-05-08T04:01:12;99788.27;;;4.63;74.48
57847;BME280;43675;50.030;21.952;2023-05-08T04:04:18;99788.27;;;4.64;74.28
57847;BME280;43675;50.030;21.952;2023-05-08T04:09:42;99794.71;;;4.68;74.50
57847;BME280;43675;50.030;21.952;2023-05-08T04:12:17;99792.01;;;4.71;74.53
57847;BME280;43675;50.030;21.952;2023-05-08T04:14:49;99797.07;;;4.73;74.37
57847;BME280;43675;50.030;21.952;2023-05-08T04:17:27;99800.73;;;4.78;74.49
57847;BME280;43675;50.030;21.952;2023-05-08T04:20:02;99804.10;;;4.79;74.25
57847;BME280;43675;50.030;21.952;2023-05-08T04:22:31;99801.11;;;4.81;74.22
57847;BME280;43675;50.030;21.952;2023-05-08T04:25:02;99808.21;;;4.81;74.17
57847;BME280;43675;50.030;21.952;2023-05-08T04:27:30;99809.50;;;4.84;74.33
57847;BME280;43675;50.030;21.952;2023-05-08T04:29:57;99808.72;;;4.86;73.91
57847;BME280;43675;50.030;21.952;2023-05-08T04:32:24;99810.63;;;4.89;74.23
57847;BME280;43675;50.030;21.952;2023-05-08T04:34:52;99811.96;;;4.93;73.99
57847;BME280;43675;50.030;21.952;2023-05-08T04:37:27;99815.98;;;5.10;73.75
57847;BME280;43675;50.030;21.952;2023-05-08T04:39:54;99818.99;;;5.27;73.33
57847;BME280;43675;50.030;21.952;2023-05-08T04:42:20;99820.95;;;5.29;73.25
57847;BME280;43675;50.030;21.952;2023-05-08T04:44:47;99824.44;;;5.21;73.28
57847;BME280;43675;50.030;21.952;2023-05-08T04:47:13;99827.88;;;5.15;73.41
57847;BME280;43675;50.030;21.952;2023-05-08T04:49:40;99830.17;;;5.11;73.41
57847;BME280;43675;50.030;21.952;2023-05-08T04:52:07;99837.37;;;5.09;73.49
57847;BME280;43675;50.030;21.952;2023-05-08T04:54:33;99836.37;;;5.06;73.57
57847;BME280;43675;50.030;21.952;2023-05-08T04:57:00;99834.07;;;5.06;73.45
57847;BME280;43675;50.030;21.952;2023-05-08T04:59:27;99833.52;;;5.06;73.43
57847;BME280;43675;50.030;21.952;2023-05-08T05:01:54;99833.67;;;5.07;73.34
57847;BME280;43675;50.030;21.952;2023-05-08T05:04:21;99842.16;;;5.07;73.40
57847;BME280;43675;50.030;21.952;2023-05-08T05:06:48;99844.52;;;5.10;73.31
57847;BME280;43675;50.030;21.952;2023-05-08T05:09:14;99844.90;;;5.11;73.41
57847;BME280;43675;50.030;21.952;2023-05-08T05:11:41;99847.98;;;5.14;73.18
57847;BME280;43675;50.030;21.952;2023-05-08T05:14:08;99848.37;;;5.19;73.09
57847;BME280;43675;50.030;21.952;2023-05-08T05:16:34;99847.16;;;5.24;73.12
57847;BME280;43675;50.030;21.952;2023-05-08T05:19:01;99851.30;;;5.27;72.88
57847;BME280;43675;50.030;21.952;2023-05-08T05:21:29;99855.34;;;5.28;72.88
57847;BME280;43675;50.030;21.952;2023-05-08T05:23:56;99857.64;;;5.30;72.62
57847;BME280;43675;50.030;21.952;2023-05-08T05:26:22;99858.77;;;5.33;72.78
57847;BME280;43675;50.030;21.952;2023-05-08T05:28:49;99862.17;;;5.36;72.72
57847;BME280;43675;50.030;21.952;2023-05-08T05:31:15;99860.52;;;5.40;72.42
57847;BME280;43675;50.030;21.952;2023-05-08T05:33:42;99869.70;;;5.44;72.33
57847;BME280;43675;50.030;21.952;2023-05-08T05:36:08;99866.11;;;5.48;72.41
57847;BME280;43675;50.030;21.952;2023-05-08T05:38:35;99872.05;;;5.49;72.20
57847;BME280;43675;50.030;21.952;2023-05-08T05:41:02;99872.20;;;5.51;72.35
57847;BME280;43675;50.030;21.952;2023-05-08T05:43:28;99872.34;;;5.56;72.22
57847;BME280;43675;50.030;21.952;2023-05-08T05:45:55;99869.50;;;5.63;72.12
57847;BME280;43675;50.030;21.952;2023-05-08T05:48:21;99870.67;;;5.69;72.04
57847;BME280;43675;50.030;21.952;2023-05-08T05:50:48;99874.51;;;5.77;71.88
57847;BME280;43675;50.030;21.952;2023-05-08T05:53:14;99876.80;;;5.86;71.89
57847;BME280;43675;50.030;21.952;2023-05-08T05:55:41;99879.59;;;5.93;71.63
57847;BME280;43675;50.030;21.952;2023-05-08T05:58:07;99879.88;;;6.01;71.45
57847;BME280;43675;50.030;21.952;2023-05-08T06:00:34;99876.90;;;6.11;71.37
57847;BME280;43675;50.030;21.952;2023-05-08T06:03:00;99879.84;;;6.17;71.04
57847;BME280;43675;50.030;21.952;2023-05-08T06:05:27;99885.80;;;6.19;70.96
57847;BME280;43675;50.030;21.952;2023-05-08T06:07:53;99884.00;;;6.21;70.75
57847;BME280;43675;50.030;21.952;2023-05-08T06:10:20;99889.02;;;6.23;70.72
57847;BME280;43675;50.030;21.952;2023-05-08T06:12:46;99892.53;;;6.28;70.65
57847;BME280;43675;50.030;21.952;2023-05-08T06:15:13;99892.27;;;6.31;70.29
57847;BME280;43675;50.030;21.952;2023-05-08T06:17:40;99894.81;;;6.35;70.31
57847;BME280;43675;50.030;21.952;2023-05-08T06:20:07;99897.33;;;6.49;70.34
57847;BME280;43675;50.030;21.952;2023-05-08T06:22:34;99897.71;;;6.74;69.85
57847;BME280;43675;50.030;21.952;2023-05-08T06:25:00;99892.04;;;6.97;69.36
57847;BME280;43675;50.030;21.952;2023-05-08T06:27:27;99891.33;;;7.05;68.91
57847;BME280;43675;50.030;21.952;2023-05-08T06:29:53;99887.81;;;7.06;68.92
57847;BME280;43675;50.030;21.952;2023-05-08T06:32:20;99889.70;;;7.09;68.90
57847;BME280;43675;50.030;21.952;2023-05-08T06:34:47;99895.45;;;7.15;68.72
57847;BME280;43675;50.030;21.952;2023-05-08T06:37:14;99897.02;;;7.22;68.34
57847;BME280;43675;50.030;21.952;2023-05-08T06:39:40;99901.17;;;7.31;68.33
57847;BME280;43675;50.030;21.952;2023-05-08T06:42:07;99897.04;;;7.40;67.80
57847;BME280;43675;50.030;21.952;2023-05-08T06:44:33;99896.99;;;7.49;67.74
57847;BME280;43675;50.030;21.952;2023-05-08T06:47:00;99891.96;;;7.55;67.61
57847;BME280;43675;50.030;21.952;2023-05-08T06:49:27;99896.88;;;7.61;67.42
57847;BME280;43675;50.030;21.952;2023-05-08T06:51:53;99894.36;;;7.76;67.43
57847;BME280;43675;50.030;21.952;2023-05-08T06:54:20;99890.94;;;7.92;67.04
57847;BME280;43675;50.030;21.952;2023-05-08T06:56:46;99895.48;;;8.11;66.71
57847;BME280;43675;50.030;21.952;2023-05-08T06:59:13;99897.11;;;8.28;66.54
57847;BME280;43675;50.030;21.952;2023-05-08T07:01:39;99900.30;;;8.49;66.17
57847;BME280;43675;50.030;21.952;2023-05-08T07:04:06;99903.90;;;8.71;65.68
57847;BME280;43675;50.030;21.952;2023-05-08T07:06:32;99905.64;;;8.90;65.17
57847;BME280;43675;50.030;21.952;2023-05-08T07:08:59;99902.84;;;9.00;64.54
57847;BME280;43675;50.030;21.952;2023-05-08T07:11:26;99902.24;;;8.99;64.24
57847;BME280;43675;50.030;21.952;2023-05-08T07:13:52;99905.83;;;9.01;64.29
57847;BME280;43675;50.030;21.952;2023-05-08T07:16:19;99903.08;;;9.00;64.08
57847;BME280;43675;50.030;21.952;2023-05-08T07:18:45;99905.76;;;8.98;63.99
57847;BME280;43675;50.030;21.952;2023-05-08T07:21:12;99907.36;;;9.01;63.94
57847;BME280;43675;50.030;21.952;2023-05-08T07:23:38;99904.05;;;9.15;63.76
57847;BME280;43675;50.030;21.952;2023-05-08T07:26:05;99906.46;;;9.24;63.53
57847;BME280;43675;50.030;21.952;2023-05-08T07:28:31;99903.46;;;9.35;62.99
57847;BME280;43675;50.030;21.952;2023-05-08T07:30:58;99906.83;;;9.43;62.90
57847;BME280;43675;50.030;21.952;2023-05-08T07:33:24;99911.73;;;9.50;62.62
57847;BME280;43675;50.030;21.952;2023-05-08T07:35:51;99909.86;;;9.60;62.74
57847;BME280;43675;50.030;21.952;2023-05-08T07:38:17;99916.50;;;9.73;62.37
57847;BME280;43675;50.030;21.952;2023-05-08T07:40:44;99914.71;;;9.79;61.96
57847;BME280;43675;50.030;21.952;2023-05-08T07:43:10;99906.36;;;9.85;61.42
57847;BME280;43675;50.030;21.952;2023-05-08T07:45:37;99906.48;;;10.02;61.67
57847;BME280;43675;50.030;21.952;2023-05-08T07:48:03;99906.48;;;10.29;61.29
57847;BME280;43675;50.030;21.952;2023-05-08T07:50:30;99906.61;;;10.50;60.42
57847;BME280;43675;50.030;21.952;2023-05-08T07:52:56;99906.57;;;10.64;60.17
57847;BME280;43675;50.030;21.952;2023-05-08T07:55:23;99902.40;;;10.73;59.68
57847;BME280;43675;50.030;21.952;2023-05-08T07:57:49;99906.34;;;10.80;59.34
57847;BME280;43675;50.030;21.952;2023-05-08T08:00:16;99905.89;;;10.87;58.59
57847;BME280;43675;50.030;21.952;2023-05-08T08:02:43;99906.29;;;10.92;58.49
57847;BME280;43675;50.030;21.952;2023-05-08T08:05:10;99903.77;;;10.96;58.10
57847;BME280;43675;50.030;21.952;2023-05-08T08:07:37;99900.89;;;11.03;57.99
57847;BME280;43675;50.030;21.952;2023-05-08T08:10:04;99903.42;;;11.14;57.84
57847;BME280;43675;50.030;21.952;2023-05-08T08:12:31;99903.88;;;11.17;57.33
57847;BME280;43675;50.030;21.952;2023-05-08T08:14:58;99903.53;;;11.03;56.74
57847;BME280;43675;50.030;21.952;2023-05-08T08:17:24;99907.60;;;10.92;56.82
57847;BME280;43675;50.030;21.952;2023-05-08T08:19:51;99906.54;;;10.93;56.81
57847;BME280;43675;50.030;21.952;2023-05-08T08:22:17;99905.70;;;11.01;56.82
57847;BME280;43675;50.030;21.952;2023-05-08T08:24:44;99902.08;;;11.12;56.51
57847;BME280;43675;50.030;21.952;2023-05-08T08:27:10;99906.95;;;11.26;56.44
57847;BME280;43675;50.030;21.952;2023-05-08T08:29:37;99902.63;;;11.45;56.17
57847;BME280;43675;50.030;21.952;2023-05-08T08:32:04;99907.15;;;11.62;55.92
57847;BME280;43675;50.030;21.952;2023-05-08T08:34:32;99905.61;;;11.78;55.40
57847;BME280;43675;50.030;21.952;2023-05-08T08:36:59;99901.83;;;11.85;55.13
57847;BME280;43675;50.030;21.952;2023-05-08T08:39:25;99900.72;;;11.74;54.57
57847;BME280;43675;50.030;21.952;2023-05-08T08:41:52;99900.02;;;11.57;54.70
57847;BME280;43675;50.030;21.952;2023-05-08T08:44:19;99897.08;;;11.48;54.78
57847;BME280;43675;50.030;21.952;2023-05-08T08:46:50;99901.05;;;11.45;54.86
57847;BME280;43675;50.030;21.952;2023-05-08T08:49:30;99903.53;;;11.40;54.64
57847;BME280;43675;50.030;21.952;2023-05-08T08:52:10;99901.45;;;11.43;54.70
57847;BME280;43675;50.030;21.952;2023-05-08T08:54:42;99903.61;;;11.44;54.68
57847;BME280;43675;50.030;21.952;2023-05-08T08:57:10;99903.36;;;11.52;54.25
57847;BME280;43675;50.030;21.952;2023-05-08T08:59:39;99897.04;;;11.61;54.24
57847;BME280;43675;50.030;21.952;2023-05-08T09:02:09;99899.41;;;11.72;53.78
57847;BME280;43675;50.030;21.952;2023-05-08T09:04:37;99896.55;;;11.83;53.73
57847;BME280;43675;50.030;21.952;2023-05-08T09:07:04;99895.85;;;11.93;53.50
57847;BME280;43675;50.030;21.952;2023-05-08T09:09:32;99898.88;;;12.03;53.30
57847;BME280;43675;50.030;21.952;2023-05-08T09:11:58;99900.38;;;12.04;53.25
57847;BME280;43675;50.030;21.952;2023-05-08T09:14:25;99906.67;;;11.94;52.86
57847;BME280;43675;50.030;21.952;2023-05-08T09:16:55;99906.06;;;11.83;52.82
57847;BME280;43675;50.030;21.952;2023-05-08T09:19:22;99906.27;;;11.83;52.77
57847;BME280;43675;50.030;21.952;2023-05-08T09:21:50;99906.58;;;11.93;52.75
57847;BME280;43675;50.030;21.952;2023-05-08T09:24:17;99912.31;;;12.00;52.48
57847;BME280;43675;50.030;21.952;2023-05-08T09:26:43;99904.64;;;12.00;52.21
57847;BME280;43675;50.030;21.952;2023-05-08T09:29:17;99908.87;;;11.95;52.27
57847;BME280;43675;50.030;21.952;2023-05-08T09:31:45;99908.51;;;11.92;52.44
57847;BME280;43675;50.030;21.952;2023-05-08T09:34:32;99910.50;;;11.92;52.50
57847;BME280;43675;50.030;21.952;2023-05-08T09:39:31;99898.27;;;12.09;52.31
57847;BME280;43675;50.030;21.952;2023-05-08T09:42:02;99905.80;;;12.08;51.99
57847;BME280;43675;50.030;21.952;2023-05-08T09:44:43;99910.52;;;11.95;51.77
57847;BME280;43675;50.030;21.952;2023-05-08T09:47:21;99912.43;;;11.91;51.93
57847;BME280;43675;50.030;21.952;2023-05-08T09:52:29;99912.92;;;12.14;51.74
57847;BME280;43675;50.030;21.952;2023-05-08T09:55:00;99910.13;;;12.22;51.44
57847;BME280;43675;50.030;21.952;2023-05-08T09:57:28;99909.95;;;12.23;51.13
57847;BME280;43675;50.030;21.952;2023-05-08T10:00:11;99915.86;;;12.19;50.83
57847;BME280;43675;50.030;21.952;2023-05-08T10:02:40;99920.35;;;11.98;50.80
57847;BME280;43675;50.030;21.952;2023-05-08T10:07:52;99922.69;;;11.49;51.49
57847;BME280;43675;50.030;21.952;2023-05-08T10:10:23;99920.24;;;11.44;51.78
57847;BME280;43675;50.030;21.952;2023-05-08T10:12:50;99920.09;;;11.57;51.75
57847;BME280;43675;50.030;21.952;2023-05-08T10:15:20;99923.50;;;11.80;51.71
57847;BME280;43675;50.030;21.952;2023-05-08T10:18:02;99917.98;;;12.06;51.41
57847;BME280;43675;50.030;21.952;2023-05-08T10:20:30;99908.99;;;12.36;51.28
57847;BME280;43675;50.030;21.952;2023-05-08T10:22:57;99908.92;;;12.49;50.89
57847;BME280;43675;50.030;21.952;2023-05-08T10:25:25;99909.44;;;12.57;50.63
57847;BME280;43675;50.030;21.952;2023-05-08T10:28:01;99905.95;;;12.58;50.31
57847;BME280;43675;50.030;21.952;2023-05-08T10:30:33;99917.41;;;12.42;50.27
57847;BME280;43675;50.030;21.952;2023-05-08T10:33:02;99914.39;;;12.27;50.38
57847;BME280;43675;50.030;21.952;2023-05-08T10:35:36;99919.30;;;12.14;50.42
57847;BME280;43675;50.030;21.952;2023-05-08T10:38:03;99922.27;;;11.97;50.56
57847;BME280;43675;50.030;21.952;2023-05-08T10:40:30;99922.20;;;11.82;50.50
57847;BME280;43675;50.030;21.952;2023-05-08T10:42:56;99919.43;;;11.69;50.71
57847;BME280;43675;50.030;21.952;2023-05-08T10:45:24;99919.74;;;11.68;50.72
57847;BME280;43675;50.030;21.952;2023-05-08T10:53:50;99906.80;;;12.21;50.61
57847;BME280;43675;50.030;21.952;2023-05-08T10:56:24;99905.38;;;12.47;50.19
57847;BME280;43675;50.030;21.952;2023-05-08T10:58:55;99908.55;;;12.67;49.57
57847;BME280;43675;50.030;21.952;2023-05-08T11:01:22;99905.56;;;12.67;48.93
57847;BME280;43675;50.030;21.952;2023-05-08T11:03:49;99906.06;;;12.62;48.69
57847;BME280;43675;50.030;21.952;2023-05-08T11:06:16;99906.48;;;12.72;48.91
57847;BME280;43675;50.030;21.952;2023-05-08T11:08:50;99901.98;;;12.87;48.66
57847;BME280;43675;50.030;21.952;2023-05-08T11:11:29;99901.34;;;13.00;48.50
57847;BME280;43675;50.030;21.952;2023-05-08T11:14:10;99898.55;;;12.98;48.36
57847;BME280;43675;50.030;21.952;2023-05-08T11:19:26;99901.42;;;12.69;48.76
57847;BME280;43675;50.030;21.952;2023-05-08T11:24:57;99900.50;;;12.24;48.93
57847;BME280;43675;50.030;21.952;2023-05-08T11:41:01;99896.98;;;11.72;49.93
57847;BME280;43675;50.030;21.952;2023-05-08T11:46:06;99892.45;;;12.28;49.44
57847;BME280;43675;50.030;21.952;2023-05-08T11:48:34;99888.94;;;12.66;48.72
57847;BME280;43675;50.030;21.952;2023-05-08T11:51:02;99887.80;;;12.96;47.86
57847;BME280;43675;50.030;21.952;2023-05-08T11:53:29;99887.55;;;13.24;47.26
57847;BME280;43675;50.030;21.952;2023-05-08T11:55:56;99878.09;;;13.43;46.84
57847;BME280;43675;50.030;21.952;2023-05-08T11:58:23;99876.83;;;13.49;46.31
57847;BME280;43675;50.030;21.952;2023-05-08T12:00:50;99874.01;;;13.50;45.91
57847;BME280;43675;50.030;21.952;2023-05-08T12:03:18;99872.48;;;13.54;45.85
57847;BME280;43675;50.030;21.952;2023-05-08T12:05:46;99877.14;;;13.59;45.95
57847;BME280;43675;50.030;21.952;2023-05-08T12:08:15;99870.22;;;13.64;45.75
57847;BME280;43675;50.030;21.952;2023-05-08T12:15:47;99873.02;;;13.86;45.46
57847;BME280;43675;50.030;21.952;2023-05-08T12:18:14;99868.75;;;14.03;45.43
57847;BME280;43675;50.030;21.952;2023-05-08T12:20:42;99878.23;;;14.18;45.20
57847;BME280;43675;50.030;21.952;2023-05-08T12:23:09;99878.70;;;14.32;44.80
57847;BME280;43675;50.030;21.952;2023-05-08T12:25:39;99881.34;;;14.46;44.51
57847;BME280;43675;50.030;21.952;2023-05-08T12:28:06;99884.55;;;14.59;44.34
57847;BME280;43675;50.030;21.952;2023-05-08T12:30:34;99885.42;;;14.56;43.95
57847;BME280;43675;50.030;21.952;2023-05-08T12:33:04;99883.66;;;14.51;43.83
57847;BME280;43675;50.030;21.952;2023-05-08T12:35:31;99882.04;;;14.50;43.76
57847;BME280;43675;50.030;21.952;2023-05-08T12:38:01;99880.54;;;14.52;43.84
57847;BME280;43675;50.030;21.952;2023-05-08T12:40:30;99876.59;;;14.52;43.49
57847;BME280;43675;50.030;21.952;2023-05-08T12:43:00;99877.46;;;14.51;43.62
57847;BME280;43675;50.030;21.952;2023-05-08T12:45:32;99872.36;;;14.63;43.72
57847;BME280;43675;50.030;21.952;2023-05-08T12:48:01;99869.95;;;14.78;43.56
57847;BME280;43675;50.030;21.952;2023-05-08T12:50:28;99867.96;;;14.88;43.35
57847;BME280;43675;50.030;21.952;2023-05-08T12:53:03;99867.88;;;14.94;43.23
57847;BME280;43675;50.030;21.952;2023-05-08T12:55:31;99869.70;;;15.04;43.30
57847;BME280;43675;50.030;21.952;2023-05-08T12:58:09;99869.52;;;15.16;42.62
57847;BME280;43675;50.030;21.952;2023-05-08T13:03:11;99866.04;;;15.03;42.33
57847;BME280;43675;50.030;21.952;2023-05-08T13:05:43;99866.09;;;14.93;42.38
57847;BME280;43675;50.030;21.952;2023-05-08T13:08:10;99864.08;;;14.94;42.54
57847;BME280;43675;50.030;21.952;2023-05-08T13:10:53;99862.70;;;14.96;42.35
57847;BME280;43675;50.030;21.952;2023-05-08T13:13:22;99861.52;;;14.88;42.30
57847;BME280;43675;50.030;21.952;2023-05-08T13:15:50;99864.46;;;14.83;42.25
57847;BME280;43675;50.030;21.952;2023-05-08T13:18:17;99866.08;;;14.71;42.10
57847;BME280;43675;50.030;21.952;2023-05-08T13:20:44;99862.62;;;14.55;41.87
57847;BME280;43675;50.030;21.952;2023-05-08T13:23:11;99861.77;;;14.36;42.19
57847;BME280;43675;50.030;21.952;2023-05-08T13:25:39;99855.04;;;14.21;42.49
57847;BME280;43675;50.030;21.952;2023-05-08T13:28:08;99854.41;;;14.20;42.52
57847;BME280;43675;50.030;21.952;2023-05-08T13:30:35;99849.92;;;14.21;42.31
57847;BME280;43675;50.030;21.952;2023-05-08T13:33:03;99847.41;;;14.12;42.31
57847;BME280;43675;50.030;21.952;2023-05-08T13:35:30;99846.66;;;13.86;42.23
57847;BME280;43675;50.030;21.952;2023-05-08T13:37:57;99843.35;;;13.48;42.56
57847;BME280;43675;50.030;21.952;2023-05-08T13:40:24;99852.96;;;13.07;42.98
57847;BME280;43675;50.030;21.952;2023-05-08T13:42:51;99854.15;;;12.71;43.42
57847;BME280;43675;50.030;21.952;2023-05-08T13:45:18;99854.29;;;12.43;44.15
57847;BME280;43675;50.030;21.952;2023-05-08T13:47:46;99851.69;;;12.19;44.47
57847;BME280;43675;50.030;21.952;2023-05-08T13:50:14;99854.52;;;12.04;44.77
57847;BME280;43675;50.030;21.952;2023-05-08T13:52:41;99853.95;;;11.94;45.15
57847;BME280;43675;50.030;21.952;2023-05-08T13:55:10;99847.65;;;11.90;45.29
57847;BME280;43675;50.030;21.952;2023-05-08T13:57:38;99850.58;;;11.92;45.58
57847;BME280;43675;50.030;21.952;2023-05-08T14:00:06;99851.01;;;12.00;45.50
57847;BME280;43675;50.030;21.952;2023-05-08T14:02:33;99849.73;;;12.10;45.68
57847;BME280;43675;50.030;21.952;2023-05-08T14:04:59;99852.77;;;12.27;45.76
57847;BME280;43675;50.030;21.952;2023-05-08T14:07:26;99852.27;;;12.51;45.73
57847;BME280;43675;50.030;21.952;2023-05-08T14:09:53;99856.50;;;12.84;45.37
57847;BME280;43675;50.030;21.952;2023-05-08T14:12:19;99853.45;;;13.13;44.93